Time;durP1;ratioP1;P1;durP2;ratioP2;P2;SDS_P1;SDS_P2;PMS_P1;PMS_P2;Temp;Humidity;BMP_temperature;BMP_pressure;BME280_temperature;BME280_humidity;BME280_pressure;Samples;Min_cycle;Max_cycle;Signal;HPM_P1;HPM_P2
2022/11/02 00:00:26;;;;;;;7.80;1.40;;;;;;;;;;5049304;28;20040;-65
2022/11/02 00:02:52;;;;;;;5.55;1.50;;;;;;;;;;5048245;28;20041;-65
2022/11/02 00:05:22;;;;;;;4.32;1.52;;;;;;;;;;5048075;28;20069;-65
2022/11/02 00:07:48;;;;;;;4.35;1.20;;;;;;;;;;5048305;28;20033;-65
2022/11/02 00:10:13;;;;;;;10.65;1.50;;;;;;;;;;5047991;28;20040;-66
2022/11/02 00:12:39;;;;;;;11.27;1.55;;;;;;;;;;5048263;28;20033;-66
2022/11/02 00:15:05;;;;;;;8.48;0.93;;;;;;;;;;5048445;28;20021;-65
2022/11/02 00:17:30;;;;;;;5.07;1.15;;;;;;;;;;5048209;28;20516;-65
2022/11/02 00:19:56;;;;;;;3.15;1.23;;;;;;;;;;5046546;28;20033;-65
2022/11/02 00:22:22;;;;;;;3.40;0.88;;;;;;;;;;5047932;28;20044;-65
2022/11/02 00:24:47;;;;;;;4.13;1.58;;;;;;;;;;5048173;28;20541;-65
2022/11/02 00:27:13;;;;;;;5.28;1.02;;;;;;;;;;5045896;28;20146;-65
2022/11/02 00:29:38;;;;;;;6.50;1.00;;;;;;;;;;5030181;28;20120;-65
2022/11/02 00:32:03;;;;;;;5.18;1.23;;;;;;;;;;5026227;28;20068;-65
2022/11/02 00:34:29;;;;;;;6.18;1.23;;;;;;;;;;5025941;28;20053;-65
2022/11/02 00:36:54;;;;;;;6.45;1.17;;;;;;;;;;5024680;28;20415;-65
2022/11/02 00:39:19;;;;;;;5.22;1.23;;;;;;;;;;5031310;28;20033;-65
2022/11/02 00:41:45;;;;;;;8.60;1.27;;;;;;;;;;5045135;28;20128;-65
2022/11/02 00:44:10;;;;;;;5.03;1.10;;;;;;;;;;5044496;28;20040;-65
2022/11/02 00:46:35;;;;;;;4.95;1.00;;;;;;;;;;5057645;28;20041;-65
2022/11/02 00:49:01;;;;;;;3.08;0.80;;;;;;;;;;5065188;28;20154;-65
2022/11/02 00:51:26;;;;;;;3.80;0.98;;;;;;;;;;5068096;28;20055;-65
2022/11/02 00:53:51;;;;;;;3.10;0.73;;;;;;;;;;5066889;28;20051;-65
2022/11/02 00:56:17;;;;;;;3.80;0.98;;;;;;;;;;5067144;28;20438;-65
2022/11/02 00:58:42;;;;;;;5.00;0.98;;;;;;;;;;5067446;28;20037;-66
2022/11/02 01:01:07;;;;;;;5.13;1.10;;;;;;;;;;5053387;28;20029;-65
2022/11/02 01:03:33;;;;;;;5.70;1.10;;;;;;;;;;5046327;28;20060;-65
2022/11/02 01:05:58;;;;;;;6.63;1.30;;;;;;;;;;5047761;28;20036;-66
2022/11/02 01:08:24;;;;;;;8.18;1.50;;;;;;;;;;5045255;28;20114;-65
2022/11/02 01:10:49;;;;;;;5.18;0.88;;;;;;;;;;5032301;28;20118;-65
2022/11/02 01:13:14;;;;;;;4.47;1.10;;;;;;;;;;5027343;28;20042;-65
2022/11/02 01:15:40;;;;;;;4.22;1.00;;;;;;;;;;5027314;28;20018;-65
2022/11/02 01:18:05;;;;;;;6.05;1.00;;;;;;;;;;5027039;28;20025;-65
2022/11/02 01:20:30;;;;;;;6.85;1.10;;;;;;;;;;5025776;28;20582;-65
2022/11/02 01:22:58;;;;;;;5.28;1.27;;;;;;;;;;5026632;28;20425;-65
2022/11/02 01:25:23;;;;;;;6.38;1.40;;;;;;;;;;5027073;28;20029;-65
2022/11/02 01:27:48;;;;;;;5.25;1.40;;;;;;;;;;5037889;28;20032;-65
2022/11/02 01:30:14;;;;;;;2.53;0.90;;;;;;;;;;5061602;28;20627;-65
2022/11/02 01:32:39;;;;;;;8.85;1.33;;;;;;;;;;5066800;28;20049;-65
2022/11/02 01:35:04;;;;;;;3.75;1.25;;;;;;;;;;5059844;28;20068;-65
2022/11/02 01:37:30;;;;;;;4.40;1.15;;;;;;;;;;5047112;28;20037;-66
2022/11/02 01:39:55;;;;;;;7.90;1.27;;;;;;;;;;5046089;28;20449;-65
2022/11/02 01:42:24;;;;;;;11.60;1.55;;;;;;;;;;5046121;28;20025;-66
2022/11/02 01:44:49;;;;;;;6.90;1.60;;;;;;;;;;5046606;28;20517;-66
2022/11/02 01:47:25;;;;;;;2.55;1.15;;;;;;;;;;5046251;28;20047;-65
2022/11/02 01:49:57;;;;;;;3.38;1.20;;;;;;;;;;5045044;28;20033;-65
2022/11/02 01:52:33;;;;;;;2.88;0.82;;;;;;;;;;5044948;28;20037;-65
2022/11/02 01:55:03;;;;;;;4.63;1.35;;;;;;;;;;5046262;28;20462;-65
2022/11/02 01:57:30;;;;;;;8.25;1.40;;;;;;;;;;5046573;28;20029;-65
2022/11/02 02:00:05;;;;;;;6.72;1.35;;;;;;;;;;5032368;28;20022;-65
2022/11/02 02:02:31;;;;;;;6.43;1.40;;;;;;;;;;5025336;28;20038;-65
2022/11/02 02:05:06;;;;;;;3.63;0.85;;;;;;;;;;5028713;28;20889;-66
2022/11/02 02:07:33;;;;;;;6.15;1.40;;;;;;;;;;5044436;28;20518;-65
2022/11/02 02:09:59;;;;;;;8.63;1.45;;;;;;;;;;5046603;28;20051;-65
2022/11/02 02:12:25;;;;;;;6.28;1.33;;;;;;;;;;5046275;28;20048;-65
2022/11/02 02:14:52;;;;;;;6.53;1.50;;;;;;;;;;5046198;28;20029;-65
2022/11/02 02:17:17;;;;;;;3.20;0.90;;;;;;;;;;5044885;28;20033;-65
2022/11/02 02:20:06;;;;;;;6.75;1.13;;;;;;;;;;5028716;28;20048;-65
2022/11/02 02:22:50;;;;;;;4.60;1.08;;;;;;;;;;5025537;28;20034;-65
2022/11/02 02:25:33;;;;;;;;;;;;;;;;;;5024758;28;20045;-65
2022/11/02 02:28:10;;;;;;;9.30;1.50;;;;;;;;;;5026238;28;19913;-65
2022/11/02 02:30:42;;;;;;;5.82;1.70;;;;;;;;;;5025663;28;20479;-65
2022/11/02 02:33:25;;;;;;;10.23;1.45;;;;;;;;;;5026138;28;20032;-65
2022/11/02 02:35:57;;;;;;;14.90;1.45;;;;;;;;;;5030444;28;20040;-65
2022/11/02 02:38:22;;;;;;;6.28;1.45;;;;;;;;;;5045871;28;20044;-65
2022/11/02 02:40:59;;;;;;;2.28;1.05;;;;;;;;;;5039198;28;20042;-65
2022/11/02 02:43:31;;;;;;;9.75;1.40;;;;;;;;;;5048916;28;20041;-65
2022/11/02 02:46:07;;;;;;;8.73;1.30;;;;;;;;;;5039387;28;20105;-66
2022/11/02 02:48:34;;;;;;;9.27;1.73;;;;;;;;;;5035763;28;20033;-65
2022/11/02 02:51:13;;;;;;;9.32;1.30;;;;;;;;;;5026685;28;20017;-65
2022/11/02 02:53:58;;;;;;;3.80;1.30;;;;;;;;;;5030748;28;20032;-65
2022/11/02 02:56:28;;;;;;;6.40;1.02;;;;;;;;;;5045719;28;20517;-65
2022/11/02 02:59:01;;;;;;;3.38;0.90;;;;;;;;;;5047110;28;20035;-65
2022/11/02 03:01:27;;;;;;;7.25;1.25;;;;;;;;;;5048246;28;20040;-65
2022/11/02 03:03:55;;;;;;;7.20;1.20;;;;;;;;;;5049094;28;20029;-65
2022/11/02 03:06:25;;;;;;;6.47;1.40;;;;;;;;;;5050277;28;20082;-65
2022/11/02 03:09:32;;;;;;;9.18;1.63;;;;;;;;;;5049563;28;20037;-65
2022/11/02 03:12:16;;;;;;;6.72;1.70;;;;;;;;;;5029791;28;20465;-65
2022/11/02 03:15:12;;;;;;;6.90;1.15;;;;;;;;;;5029689;28;20056;-65
2022/11/02 03:17:49;;;;;;;5.93;0.93;;;;;;;;;;5029774;28;20037;-65
2022/11/02 03:20:25;;;;;;;9.32;1.55;;;;;;;;;;5042897;28;20213;-65
2022/11/02 03:22:56;;;;;;;3.42;1.23;;;;;;;;;;5049204;28;20029;-65
2022/11/02 03:25:29;;;;;;;5.20;1.20;;;;;;;;;;5048849;28;20037;-65
2022/11/02 03:28:11;;;;;;;11.00;1.47;;;;;;;;;;5049226;28;20025;-65
2022/11/02 03:30:46;;;;;;;3.22;1.10;;;;;;;;;;5048500;28;20255;-66
2022/11/02 03:33:24;;;;;;;8.20;1.23;;;;;;;;;;5048254;28;20090;-65
2022/11/02 03:35:57;;;;;;;6.55;1.10;;;;;;;;;;5048936;28;20033;-66
2022/11/02 03:38:31;;;;;;;5.13;1.40;;;;;;;;;;5045499;28;20124;-65
2022/11/02 03:41:00;;;;;;;4.75;1.20;;;;;;;;;;5029073;28;20037;-65
2022/11/02 03:43:26;;;;;;;11.90;1.58;;;;;;;;;;5028556;28;20037;-65
2022/11/02 03:45:57;;;;;;;11.60;1.30;;;;;;;;;;5033850;28;20053;-65
2022/11/02 03:48:28;;;;;;;4.30;1.10;;;;;;;;;;5034510;28;20112;-65
2022/11/02 03:50:57;;;;;;;9.88;1.60;;;;;;;;;;5029020;28;20748;-65
2022/11/02 03:53:25;;;;;;;3.83;1.27;;;;;;;;;;5028397;28;20059;-65
2022/11/02 03:55:54;;;;;;;9.55;1.42;;;;;;;;;;5028436;28;20030;-65
2022/11/02 03:58:19;;;;;;;7.07;1.30;;;;;;;;;;5036032;28;20515;-65
2022/11/02 04:01:11;;;;;;;5.65;1.20;;;;;;;;;;5045395;28;20532;-65
2022/11/02 04:03:43;;;;;;;6.13;1.48;;;;;;;;;;5046625;28;20673;-65
2022/11/02 04:06:09;;;;;;;8.40;1.58;;;;;;;;;;5047213;28;20028;-65
2022/11/02 04:08:48;;;;;;;6.55;1.20;;;;;;;;;;5046835;28;20025;-66
2022/11/02 04:16:42;;;;;;;;;;;;;;;;;;5029103;28;20040;-65
2022/11/02 04:19:28;;;;;;;8.88;1.20;;;;;;;;;;5028010;28;19913;-65
2022/11/02 04:27:23;;;;;;;2.97;1.05;;;;;;;;;;5029542;28;20107;-65
2022/11/02 04:29:48;;;;;;;8.73;1.55;;;;;;;;;;5027745;28;20736;-65
2022/11/02 04:32:14;;;;;;;10.05;1.90;;;;;;;;;;5028276;28;20037;-65
2022/11/02 04:34:39;;;;;;;9.32;1.38;;;;;;;;;;5027673;28;20061;-65
2022/11/02 04:38:39;;;;;;;5.75;1.52;;;;;;;;;;5028041;28;20128;-65
2022/11/02 04:39:50;;;;;;;9.52;1.30;;;;;;;;;;5037601;28;20674;-65
2022/11/02 04:42:15;;;;;;;6.47;1.15;;;;;;;;;;5047620;28;20029;-65
2022/11/02 04:44:40;;;;;;;9.40;1.65;;;;;;;;;;5047939;28;20112;-65
2022/11/02 04:47:05;;;;;;;4.40;1.23;;;;;;;;;;5041677;28;20421;-65
2022/11/02 04:49:31;;;;;;;15.60;1.98;;;;;;;;;;5046592;28;20029;-65
2022/11/02 04:51:56;;;;;;;4.85;1.35;;;;;;;;;;5047691;28;20091;-65
2022/11/02 04:54:21;;;;;;;7.57;1.63;;;;;;;;;;5047456;28;20414;-65
2022/11/02 04:56:47;;;;;;;11.00;2.10;;;;;;;;;;5047121;28;20117;-65
2022/11/02 04:59:12;;;;;;;7.22;1.52;;;;;;;;;;5046388;28;20116;-66
2022/11/02 05:01:37;;;;;;;16.77;1.90;;;;;;;;;;5046832;28;20032;-65
2022/11/02 05:04:03;;;;;;;8.25;1.25;;;;;;;;;;5046088;28;20060;-65
2022/11/02 05:06:28;;;;;;;11.48;1.25;;;;;;;;;;5045550;28;20078;-65
2022/11/02 05:08:54;;;;;;;5.32;1.45;;;;;;;;;;5046343;28;20120;-65
2022/11/02 05:11:19;;;;;;;7.22;1.50;;;;;;;;;;5046739;28;20553;-65
2022/11/02 05:13:45;;;;;;;6.20;1.83;;;;;;;;;;5047191;28;20395;-65
2022/11/02 05:16:12;;;;;;;11.60;1.83;;;;;;;;;;5046600;28;20572;-65
2022/11/02 05:18:37;;;;;;;9.68;1.63;;;;;;;;;;5046612;28;20044;-65
2022/11/02 05:21:03;;;;;;;5.20;1.33;;;;;;;;;;5046111;28;20052;-65
2022/11/02 05:23:28;;;;;;;6.85;1.30;;;;;;;;;;5047013;28;20029;-65
2022/11/02 05:25:56;;;;;;;6.32;1.30;;;;;;;;;;5045393;28;20032;-65
2022/11/02 05:28:22;;;;;;;7.05;1.70;;;;;;;;;;5046778;28;20460;-65
2022/11/02 05:30:48;;;;;;;10.07;1.77;;;;;;;;;;5066121;28;20036;-65
2022/11/02 05:33:13;;;;;;;7.57;1.65;;;;;;;;;;5067523;28;20066;-65
2022/11/02 05:35:39;;;;;;;5.88;1.50;;;;;;;;;;5066524;28;20856;-65
2022/11/02 05:38:04;;;;;;;9.75;1.30;;;;;;;;;;5065738;28;20029;-65
2022/11/02 05:40:29;;;;;;;8.95;1.58;;;;;;;;;;5049940;28;20502;-65
2022/11/02 05:43:02;;;;;;;8.00;1.85;;;;;;;;;;5045837;28;20048;-65
2022/11/02 05:45:27;;;;;;;9.63;1.40;;;;;;;;;;5050111;28;20044;-65
2022/11/02 05:47:52;;;;;;;6.40;1.45;;;;;;;;;;5066597;28;20500;-65
2022/11/02 05:50:18;;;;;;;11.50;1.45;;;;;;;;;;5066699;28;20373;-65
2022/11/02 05:52:43;;;;;;;9.13;1.20;;;;;;;;;;5066378;28;20505;-65
2022/11/02 05:55:09;;;;;;;11.48;1.48;;;;;;;;;;5066375;28;20024;-65
2022/11/02 05:57:34;;;;;;;8.05;1.60;;;;;;;;;;5066368;28;20489;-65
2022/11/02 06:00:00;;;;;;;6.47;1.77;;;;;;;;;;5066795;28;20097;-65
2022/11/02 06:02:25;;;;;;;10.25;1.73;;;;;;;;;;5063628;28;20040;-66
2022/11/02 06:04:50;;;;;;;9.77;1.20;;;;;;;;;;5063255;28;20124;-65
2022/11/02 06:07:15;;;;;;;7.43;1.40;;;;;;;;;;5056478;28;20029;-65
2022/11/02 06:09:41;;;;;;;9.07;1.85;;;;;;;;;;5045240;28;20052;-65
2022/11/02 06:12:06;;;;;;;10.25;1.33;;;;;;;;;;5041434;28;20155;-65
2022/11/02 06:14:32;;;;;;;8.70;1.35;;;;;;;;;;5044039;28;20037;-65
2022/11/02 06:16:57;;;;;;;6.63;1.50;;;;;;;;;;5044481;28;20120;-65
2022/11/02 06:19:22;;;;;;;11.02;2.08;;;;;;;;;;5045977;28;20051;-65
2022/11/02 06:21:48;;;;;;;7.78;1.48;;;;;;;;;;5028632;28;20792;-65
2022/11/02 06:24:13;;;;;;;14.05;2.35;;;;;;;;;;5040710;28;20032;-65
2022/11/02 06:26:38;;;;;;;8.70;1.23;;;;;;;;;;5042290;28;20120;-65
2022/11/02 06:29:03;;;;;;;7.57;1.58;;;;;;;;;;5046766;28;20037;-65
2022/11/02 06:31:29;;;;;;;11.63;1.90;;;;;;;;;;5050152;28;20063;-65
2022/11/02 06:33:54;;;;;;;9.55;1.48;;;;;;;;;;5049483;28;20021;-65
2022/11/02 06:36:19;;;;;;;11.00;1.85;;;;;;;;;;5036359;28;20056;-66
2022/11/02 06:38:45;;;;;;;12.57;1.88;;;;;;;;;;5046777;28;20029;-66
2022/11/02 06:41:10;;;;;;;6.88;1.40;;;;;;;;;;5048340;28;20041;-65
2022/11/02 06:43:37;;;;;;;5.78;1.10;;;;;;;;;;5049355;28;20048;-65
2022/11/02 06:46:03;;;;;;;8.73;1.80;;;;;;;;;;5047700;28;20071;-65
2022/11/02 06:48:28;;;;;;;5.40;1.30;;;;;;;;;;5044984;28;20033;-65
2022/11/02 06:50:54;;;;;;;6.15;1.48;;;;;;;;;;5050447;28;20403;-65
2022/11/02 06:53:20;;;;;;;12.15;1.83;;;;;;;;;;5049446;28;20060;-65
2022/11/02 06:55:51;;;;;;;7.57;1.90;;;;;;;;;;5047105;28;20036;-65
2022/11/02 06:58:16;;;;;;;9.80;1.42;;;;;;;;;;5048602;28;20817;-65
2022/11/02 07:00:41;;;;;;;6.07;1.50;;;;;;;;;;5048891;28;20027;-65
2022/11/02 07:03:09;;;;;;;9.02;1.60;;;;;;;;;;5047601;28;20036;-65
2022/11/02 07:05:35;;;;;;;8.43;1.30;;;;;;;;;;5038029;28;20036;-65
2022/11/02 07:08:00;;;;;;;17.23;1.77;;;;;;;;;;5027855;28;20037;-65
2022/11/02 07:10:26;;;;;;;14.95;2.05;;;;;;;;;;5040763;28;20595;-65
2022/11/02 07:12:56;;;;;;;9.55;1.55;;;;;;;;;;5042693;28;20036;-64
2022/11/02 07:15:22;;;;;;;9.40;1.77;;;;;;;;;;5048645;28;20036;-66
2022/11/02 07:17:48;;;;;;;11.63;2.15;;;;;;;;;;5046369;28;20026;-66
2022/11/02 07:20:14;;;;;;;9.57;1.20;;;;;;;;;;5047128;28;20083;-66
2022/11/02 07:22:39;;;;;;;13.88;1.85;;;;;;;;;;5044421;28;20426;-66
2022/11/02 07:25:05;;;;;;;4.78;1.30;;;;;;;;;;5046376;28;21250;-67
2022/11/02 07:27:31;;;;;;;7.50;1.38;;;;;;;;;;5046062;28;20028;-67
2022/11/02 07:29:57;;;;;;;14.57;1.58;;;;;;;;;;5045898;28;20387;-66
2022/11/02 07:32:22;;;;;;;6.85;1.90;;;;;;;;;;5048979;28;20029;-66
2022/11/02 07:34:48;;;;;;;10.27;2.13;;;;;;;;;;5047817;28;20592;-67
2022/11/02 07:37:13;;;;;;;9.95;1.98;;;;;;;;;;5046624;28;20518;-67
2022/11/02 07:39:38;;;;;;;14.02;1.60;;;;;;;;;;5042986;28;20029;-66
2022/11/02 07:42:05;;;;;;;11.63;1.88;;;;;;;;;;5045675;28;20028;-66
2022/11/02 07:44:31;;;;;;;12.38;1.95;;;;;;;;;;5046693;28;20037;-66
2022/11/02 07:46:56;;;;;;;8.45;1.92;;;;;;;;;;5038221;28;20090;-66
2022/11/02 07:49:21;;;;;;;12.80;1.80;;;;;;;;;;5034153;28;20064;-66
2022/11/02 07:51:47;;;;;;;7.10;1.33;;;;;;;;;;5040111;28;20094;-67
2022/11/02 07:54:12;;;;;;;7.57;1.70;;;;;;;;;;5036824;28;20569;-66
2022/11/02 07:56:38;;;;;;;12.63;2.53;;;;;;;;;;5029142;28;20029;-66
2022/11/02 07:59:03;;;;;;;15.50;1.92;;;;;;;;;;5026931;28;20116;-66
2022/11/02 08:01:28;;;;;;;15.13;1.70;;;;;;;;;;5041133;28;20047;-66
2022/11/02 08:03:55;;;;;;;9.10;1.80;;;;;;;;;;5042871;28;20049;-66
2022/11/02 08:06:20;;;;;;;7.70;1.52;;;;;;;;;;5027822;28;20056;-66
2022/11/02 08:08:45;;;;;;;12.50;1.67;;;;;;;;;;5026040;28;20065;-66
2022/11/02 08:11:11;;;;;;;15.02;2.35;;;;;;;;;;5034516;28;20046;-66
2022/11/02 08:13:36;;;;;;;11.38;1.67;;;;;;;;;;5040761;28;20068;-67
2022/11/02 08:16:02;;;;;;;10.85;2.65;;;;;;;;;;5043760;28;20036;-66
2022/11/02 08:18:28;;;;;;;12.70;1.75;;;;;;;;;;5034738;28;20060;-66
2022/11/02 08:20:55;;;;;;;12.57;2.10;;;;;;;;;;5026292;28;20082;-66
2022/11/02 08:23:20;;;;;;;8.98;1.30;;;;;;;;;;5036209;28;20079;-67
2022/11/02 08:25:47;;;;;;;9.57;1.70;;;;;;;;;;5043986;28;20029;-67
2022/11/02 08:28:18;;;;;;;6.32;1.58;;;;;;;;;;5048416;28;20037;-67
2022/11/02 08:30:44;;;;;;;6.82;1.60;;;;;;;;;;5046448;28;20057;-67
2022/11/02 08:33:12;;;;;;;7.03;1.67;;;;;;;;;;5048521;28;20044;-66
2022/11/02 08:35:38;;;;;;;7.43;1.55;;;;;;;;;;5046973;28;20025;-66
2022/11/02 08:38:05;;;;;;;12.93;1.63;;;;;;;;;;5048326;28;20041;-67
2022/11/02 08:40:30;;;;;;;8.75;1.88;;;;;;;;;;5044009;28;20090;-67
2022/11/02 08:42:57;;;;;;;7.30;2.00;;;;;;;;;;5045676;28;20041;-67
2022/11/02 08:45:22;;;;;;;12.30;1.67;;;;;;;;;;5065343;28;20052;-66
2022/11/02 08:47:47;;;;;;;7.20;1.63;;;;;;;;;;5068125;28;20047;-66
2022/11/02 08:50:13;;;;;;;10.68;1.55;;;;;;;;;;5067305;28;20629;-67
2022/11/02 08:52:39;;;;;;;8.05;1.45;;;;;;;;;;5067540;28;20028;-66
2022/11/02 08:55:05;;;;;;;10.35;1.98;;;;;;;;;;5067856;28;20051;-66
2022/11/02 08:57:30;;;;;;;11.65;1.95;;;;;;;;;;5057058;28;20025;-66
2022/11/02 08:59:55;;;;;;;13.55;1.70;;;;;;;;;;5047085;28;20410;-67
2022/11/02 09:02:21;;;;;;;12.82;1.75;;;;;;;;;;5046943;28;20091;-66
2022/11/02 09:04:46;;;;;;;11.27;2.00;;;;;;;;;;5047428;28;20033;-66
2022/11/02 09:07:11;;;;;;;12.82;1.75;;;;;;;;;;5046113;28;20057;-66
2022/11/02 09:09:37;;;;;;;6.32;1.73;;;;;;;;;;5046865;28;20041;-66
2022/11/02 09:12:02;;;;;;;11.05;1.52;;;;;;;;;;5048540;28;20029;-67
2022/11/02 09:14:27;;;;;;;9.65;1.75;;;;;;;;;;5046871;28;20043;-66
2022/11/02 09:16:53;;;;;;;8.10;1.38;;;;;;;;;;5046649;28;20037;-66
2022/11/02 09:19:18;;;;;;;13.65;2.55;;;;;;;;;;5046557;28;20040;-66
2022/11/02 09:21:43;;;;;;;14.32;1.50;;;;;;;;;;5047585;28;20112;-66
2022/11/02 09:24:09;;;;;;;9.10;1.90;;;;;;;;;;5046999;28;20032;-66
2022/11/02 09:26:34;;;;;;;11.20;1.83;;;;;;;;;;5046306;28;20033;-66
2022/11/02 09:28:59;;;;;;;10.13;1.63;;;;;;;;;;5047316;28;20439;-66
2022/11/02 09:31:25;;;;;;;8.98;1.92;;;;;;;;;;5046771;28;20048;-66
2022/11/02 09:33:50;;;;;;;7.70;1.13;;;;;;;;;;5047581;28;20025;-66
2022/11/02 09:36:15;;;;;;;6.93;1.65;;;;;;;;;;5043792;28;20063;-67
2022/11/02 09:38:41;;;;;;;22.88;2.65;;;;;;;;;;5042089;28;20529;-66
2022/11/02 09:41:13;;;;;;;6.03;1.45;;;;;;;;;;5034775;28;20525;-66
2022/11/02 09:44:00;;;;;;;18.08;2.05;;;;;;;;;;5041420;28;20047;-66
2022/11/02 09:46:30;;;;;;;6.75;1.45;;;;;;;;;;5036530;28;20079;-73
2022/11/02 09:48:59;;;;;;;7.25;1.67;;;;;;;;;;5035481;28;20120;-73
2022/11/02 09:51:34;;;;;;;14.13;1.80;;;;;;;;;;5025354;28;20057;-68
2022/11/02 09:54:30;;;;;;;8.68;1.80;;;;;;;;;;5027490;28;20032;-73
2022/11/02 09:56:59;;;;;;;12.23;2.60;;;;;;;;;;5022688;28;20060;-64
2022/11/02 09:59:25;;;;;;;9.07;2.03;;;;;;;;;;5026774;28;20706;-66
2022/11/02 10:02:15;;;;;;;17.30;1.88;;;;;;;;;;5025348;28;20049;-66
2022/11/02 10:04:41;;;;;;;10.10;1.42;;;;;;;;;;5026127;28;20045;-68
2022/11/02 10:07:56;;;;;;;9.63;1.77;;;;;;;;;;5026770;28;20095;-66
2022/11/02 10:10:33;;;;;;;12.90;1.73;;;;;;;;;;5025365;28;20044;-66
2022/11/02 10:13:01;;;;;;;10.27;1.75;;;;;;;;;;5027024;28;20033;-66
2022/11/02 10:15:41;;;;;;;9.15;1.58;;;;;;;;;;5027267;28;20033;-66
2022/11/02 10:18:15;;;;;;;13.07;2.20;;;;;;;;;;5026076;28;20032;-66
2022/11/02 10:20:41;;;;;;;;;;;;;;;;;;5025458;28;20096;-65
2022/11/02 10:23:13;;;;;;;8.68;1.77;;;;;;;;;;5026790;28;20586;-64
2022/11/02 10:25:40;;;;;;;16.02;1.73;;;;;;;;;;5027610;28;20057;-65
2022/11/02 10:28:14;;;;;;;7.28;1.50;;;;;;;;;;5028020;28;20651;-66
2022/11/02 10:30:42;;;;;;;10.82;2.17;;;;;;;;;;5027456;28;20046;-66
2022/11/02 10:33:16;;;;;;;10.18;1.60;;;;;;;;;;5027470;28;20018;-65
2022/11/02 10:35:58;;;;;;;6.72;1.67;;;;;;;;;;5026986;28;20046;-65
2022/11/02 10:38:32;;;;;;;9.60;1.60;;;;;;;;;;5045265;28;20041;-66
2022/11/02 10:41:13;;;;;;;13.60;2.95;;;;;;;;;;5025737;28;20102;-70
2022/11/02 10:43:38;;;;;;;4.80;1.17;;;;;;;;;;5028143;28;20045;-69
2022/11/02 10:46:27;;;;;;;10.32;1.40;;;;;;;;;;5029131;28;20186;-68
2022/11/02 10:49:13;;;;;;;11.80;1.60;;;;;;;;;;5025104;28;20041;-65
2022/11/02 10:51:39;;;;;;;8.95;1.42;;;;;;;;;;5035613;28;20588;-69
2022/11/02 10:54:12;;;;;;;11.52;1.95;;;;;;;;;;5044437;28;20494;-71
2022/11/02 10:56:39;;;;;;;13.98;2.63;;;;;;;;;;5045264;28;20037;-70
2022/11/02 10:59:15;;;;;;;9.90;1.55;;;;;;;;;;5041905;28;20064;-70
2022/11/02 11:02:03;;;;;;;9.40;1.50;;;;;;;;;;5041470;28;20052;-71
2022/11/02 11:04:30;;;;;;;11.45;1.15;;;;;;;;;;5046299;28;20425;-70
2022/11/02 11:06:57;;;;;;;8.52;1.50;;;;;;;;;;5045411;28;20055;-71
2022/11/02 11:09:32;;;;;;;7.65;1.60;;;;;;;;;;5046649;28;20068;-68
2022/11/02 11:12:03;;;;;;;9.32;1.92;;;;;;;;;;5045431;28;20166;-69
2022/11/02 11:14:31;;;;;;;10.48;1.60;;;;;;;;;;5047485;28;20033;-70
2022/11/02 11:16:59;;;;;;;8.25;1.33;;;;;;;;;;5048909;28;20601;-74
2022/11/02 11:19:37;;;;;;;6.63;0.93;;;;;;;;;;5050167;28;20094;-74
2022/11/02 11:22:22;;;;;;;6.35;1.23;;;;;;;;;;5046166;28;20028;-74
2022/11/02 11:24:47;;;;;;;6.93;1.45;;;;;;;;;;5042605;28;20458;-74
2022/11/02 11:27:18;;;;;;;8.68;1.30;;;;;;;;;;5049355;28;20021;-74
2022/11/02 11:30:02;;;;;;;8.05;0.98;;;;;;;;;;5049090;28;20037;-74
2022/11/02 11:32:28;;;;;;;;;;;;;;;;;;5049743;28;20058;-74
2022/11/02 11:34:57;;;;;;;8.23;1.50;;;;;;;;;;5047798;28;19921;-74
2022/11/02 11:37:24;;;;;;;6.65;1.02;;;;;;;;;;5049381;28;20041;-74
2022/11/02 11:39:54;;;;;;;9.98;1.55;;;;;;;;;;5049337;28;20035;-74
2022/11/02 11:42:22;;;;;;;7.53;1.25;;;;;;;;;;5041137;28;20029;-74
2022/11/02 11:45:06;;;;;;;4.55;1.58;;;;;;;;;;5032350;28;20052;-74
2022/11/02 11:47:41;;;;;;;7.20;1.52;;;;;;;;;;5028864;28;20046;-74
2022/11/02 11:50:14;;;;;;;10.05;1.20;;;;;;;;;;5030421;28;20683;-75
2022/11/02 11:52:39;;;;;;;8.63;1.50;;;;;;;;;;5052845;28;20029;-74
2022/11/02 11:55:28;;;;;;;9.75;1.10;;;;;;;;;;5068936;28;20591;-74
2022/11/02 11:58:14;;;;;;;11.10;1.48;;;;;;;;;;5059514;28;20102;-74
2022/11/02 12:00:40;;;;;;;7.82;1.52;;;;;;;;;;5046013;28;20434;-74
2022/11/02 12:03:09;;;;;;;8.15;1.25;;;;;;;;;;5065662;28;20486;-74
2022/11/02 12:06:00;;;;;;;4.30;1.00;;;;;;;;;;5067577;28;20037;-74
2022/11/02 12:08:59;;;;;;;10.77;1.38;;;;;;;;;;5051370;28;20033;-74
2022/11/02 12:11:32;;;;;;;5.40;1.15;;;;;;;;;;5043404;28;20052;-74
2022/11/02 12:14:14;;;;;;;5.97;1.00;;;;;;;;;;5049184;28;20119;-74
2022/11/02 12:17:02;;;;;;;6.32;1.23;;;;;;;;;;5047315;28;20485;-74
2022/11/02 12:19:33;;;;;;;8.02;1.17;;;;;;;;;;5048891;28;20123;-74
2022/11/02 12:22:30;;;;;;;6.80;1.55;;;;;;;;;;5048785;28;20037;-74
2022/11/02 12:24:58;;;;;;;3.45;0.82;;;;;;;;;;5047859;28;20037;-75
2022/11/02 12:27:58;;;;;;;7.55;1.48;;;;;;;;;;5047708;28;20028;-74
2022/11/02 12:30:46;;;;;;;1.25;1.00;;;;;;;;;;5047922;28;20017;-75
2022/11/02 12:33:17;;;;;;;9.02;1.20;;;;;;;;;;5046684;28;20024;-75
2022/11/02 12:35:58;;;;;;;4.22;0.93;;;;;;;;;;5048325;28;20044;-75
2022/11/02 12:38:58;;;;;;;4.93;1.10;;;;;;;;;;5044624;28;20060;-74
2022/11/02 12:41:37;;;;;;;8.80;1.27;;;;;;;;;;5030419;28;20732;-74
2022/11/02 12:44:33;;;;;;;3.80;1.00;;;;;;;;;;5047955;28;20478;-74
2022/11/02 12:47:13;;;;;;;11.15;1.40;;;;;;;;;;5055781;28;20072;-74
2022/11/02 12:49:50;;;;;;;6.03;1.27;;;;;;;;;;5066734;28;20553;-74
2022/11/02 12:52:21;;;;;;;5.10;1.00;;;;;;;;;;5066321;28;20536;-74
2022/11/02 12:54:50;;;;;;;5.00;1.15;;;;;;;;;;5047345;28;20038;-74
2022/11/02 12:57:20;;;;;;;6.70;1.30;;;;;;;;;;5038702;28;20017;-74
2022/11/02 12:59:53;;;;;;;7.50;1.08;;;;;;;;;;5042853;28;20041;-74
2022/11/02 13:02:36;;;;;;;3.95;1.20;;;;;;;;;;5044679;28;20167;-74
2022/11/02 13:05:16;;;;;;;10.98;1.20;;;;;;;;;;5047681;28;20029;-71
2022/11/02 13:07:48;;;;;;;8.52;1.02;;;;;;;;;;5047597;28;20033;-72
2022/11/02 13:10:25;;;;;;;6.35;1.10;;;;;;;;;;5047556;28;20510;-71
2022/11/02 13:12:55;;;;;;;7.18;1.08;;;;;;;;;;5045551;28;20151;-74
2022/11/02 13:15:24;;;;;;;4.13;1.00;;;;;;;;;;5045345;28;20055;-65
2022/11/02 13:17:59;;;;;;;3.80;0.80;;;;;;;;;;5048545;28;20021;-64
2022/11/02 13:20:41;;;;;;;5.53;1.30;;;;;;;;;;5047640;28;20041;-65
2022/11/02 13:23:18;;;;;;;6.43;1.00;;;;;;;;;;5047534;28;20040;-65
2022/11/02 13:25:50;;;;;;;3.28;0.98;;;;;;;;;;5048055;28;20066;-66
2022/11/02 13:28:30;;;;;;;4.15;0.88;;;;;;;;;;5047066;28;20025;-65
2022/11/02 13:30:55;;;;;;;5.47;1.02;;;;;;;;;;5047477;28;20029;-64
2022/11/02 13:33:40;;;;;;;7.00;1.02;;;;;;;;;;5047436;28;20142;-65
2022/11/02 13:36:06;;;;;;;5.32;0.80;;;;;;;;;;5046586;28;20437;-65
2022/11/02 13:38:37;;;;;;;6.22;0.95;;;;;;;;;;5046186;28;20502;-63
2022/11/02 13:41:19;;;;;;;5.57;0.88;;;;;;;;;;5047693;28;20025;-66
2022/11/02 13:44:15;;;;;;;7.68;1.20;;;;;;;;;;5046801;28;20116;-65
2022/11/02 13:46:57;;;;;;;5.97;1.20;;;;;;;;;;5047312;28;20049;-65
2022/11/02 13:49:32;;;;;;;5.60;1.20;;;;;;;;;;5047362;28;20059;-64
2022/11/02 13:52:02;;;;;;;6.88;1.00;;;;;;;;;;5052680;28;20028;-64
2022/11/02 13:54:40;;;;;;;4.63;1.08;;;;;;;;;;5067480;28;20012;-65
2022/11/02 13:57:23;;;;;;;8.55;1.30;;;;;;;;;;5067756;28;20028;-65
2022/11/02 13:59:49;;;;;;;5.32;0.85;;;;;;;;;;5066082;28;21005;-62
2022/11/02 14:02:17;;;;;;;3.50;1.08;;;;;;;;;;5066406;28;20131;-65
2022/11/02 14:04:44;;;;;;;2.95;0.65;;;;;;;;;;5066747;28;20056;-65
2022/11/02 14:07:28;;;;;;;16.35;1.30;;;;;;;;;;5065828;28;20040;-65
2022/11/02 14:10:03;;;;;;;8.00;1.33;;;;;;;;;;5043576;28;20029;-65
2022/11/02 14:12:40;;;;;;;7.28;1.10;;;;;;;;;;5045199;28;20044;-64
2022/11/02 14:15:11;;;;;;;5.80;1.50;;;;;;;;;;5047018;28;20498;-64
2022/11/02 14:17:51;;;;;;;4.30;1.00;;;;;;;;;;5045188;28;20580;-64
2022/11/02 14:20:40;;;;;;;4.22;0.90;;;;;;;;;;5047255;28;20103;-65
2022/11/02 14:23:16;;;;;;;6.80;1.23;;;;;;;;;;5046025;28;20041;-65
2022/11/02 14:25:48;;;;;;;5.88;0.80;;;;;;;;;;5047429;28;20518;-65
2022/11/02 14:28:19;;;;;;;1.77;0.73;;;;;;;;;;5066595;28;20039;-65
2022/11/02 14:30:47;;;;;;;4.43;1.02;;;;;;;;;;5066842;28;20040;-64
2022/11/02 14:33:51;;;;;;;5.57;0.80;;;;;;;;;;5067181;28;20024;-64
2022/11/02 14:36:16;;;;;;;7.97;1.17;;;;;;;;;;5058465;28;20041;-65
2022/11/02 14:39:01;;;;;;;8.45;1.08;;;;;;;;;;5065273;28;20653;-65
2022/11/02 14:42:01;;;;;;;4.50;1.08;;;;;;;;;;5025163;28;20037;-64
2022/11/02 14:44:38;;;;;;;6.13;0.98;;;;;;;;;;5026899;28;20729;-64
2022/11/02 14:47:09;;;;;;;4.93;0.98;;;;;;;;;;5059996;28;20098;-64
2022/11/02 14:49:45;;;;;;;2.35;0.68;;;;;;;;;;5047639;28;20052;-64
2022/11/02 14:52:10;;;;;;;5.18;0.80;;;;;;;;;;5048545;28;20040;-64
2022/11/02 14:54:53;;;;;;;9.98;1.40;;;;;;;;;;5050033;28;20025;-65
2022/11/02 14:57:33;;;;;;;5.13;0.80;;;;;;;;;;5042596;28;20035;-64
2022/11/02 15:00:02;;;;;;;3.70;0.65;;;;;;;;;;5044337;28;20021;-65
2022/11/02 15:02:33;;;;;;;5.80;1.05;;;;;;;;;;5030059;28;20465;-65
2022/11/02 15:05:01;;;;;;;3.97;0.98;;;;;;;;;;5030534;28;20511;-65
2022/11/02 15:07:40;;;;;;;6.57;1.10;;;;;;;;;;5030849;28;20033;-65
2022/11/02 15:10:31;;;;;;;3.80;0.90;;;;;;;;;;5029621;28;20045;-65
2022/11/02 15:13:18;;;;;;;3.45;0.85;;;;;;;;;;5030126;28;20045;-66